CheckWX is a tool to help pilots better visualize weather data.  It is not intended as a substitute for an official pre-flight weather briefing.

10:58:47 UTC

KMQB METAR
Macomb Municipal Airport
Macomb, Illinois, USA
Current

24 mins ago

KMQB 041035Z AUTO 33018G22KT 10SM OVC007 M01/M01 A3019 RMK AO2 T10061013
Observed
Apr-4 @ 10:35 UTC
Wind
  • 330° at 18 KTS
  • Gusting to 22 KTS
Visibility
Flight Rules
IFR
Cloud Levels
  • Overcast at 700' AGL
Temperature
-1°C / 30°F
Dewpoint
-1°C / 30°F
Humidity
100%
Altimeter
30.19" Hg
Pressure
1022.32 hPa
Previous

44 mins ago

KMQB 041015Z AUTO 32012G23KT 10SM OVC009 00/M01 A3018 RMK AO2 T10051012
Observed
Apr-4 @ 10:15 UTC
Wind
  • 320° at 12 KTS
  • Gusting to 23 KTS
Visibility
Flight Rules
IFR
Cloud Levels
  • Overcast at 900' AGL
Temperature
C / 32°F
Dewpoint
-1°C / 30°F
Humidity
93%
Altimeter
30.18" Hg
Pressure
1022.02 hPa
Previous

1 hour ago

KMQB 040955Z AUTO 32015G20KT 10SM OVC009 00/M01 A3018 RMK AO2 T10031012
Observed
Apr-4 @ 09:55 UTC
Wind
  • 320° at 15 KTS
  • Gusting to 20 KTS
Visibility
Flight Rules
IFR
Cloud Levels
  • Overcast at 900' AGL
Temperature
C / 32°F
Dewpoint
-1°C / 30°F
Humidity
93%
Altimeter
30.18" Hg
Pressure
1022.02 hPa